Time;durP1;ratioP1;P1;durP2;ratioP2;P2;SDS_P1;SDS_P2;PMS_P1;PMS_P2;Temp;Humidity;BMP_temperature;BMP_pressure;BME280_temperature;BME280_humidity;BME280_pressure;Samples;Min_cycle;Max_cycle;Signal;HPM_P1;HPM_P2
2023/02/14 00:02:17;;;;;;;23.88;14.27;;;;;;;6.48;80.69;101908.59;5056457;28;20131;-46
2023/02/14 00:04:45;;;;;;;23.80;13.50;;;;;;;6.47;81.04;101904.19;5072135;28;20071;-47
2023/02/14 00:07:12;;;;;;;22.05;13.93;;;;;;;6.45;81.02;101889.09;5071606;28;20452;-48
2023/02/14 00:09:39;;;;;;;23.13;13.52;;;;;;;6.43;81.21;101894.91;5062746;28;20051;-50
2023/02/14 00:12:06;;;;;;;27.00;14.60;;;;;;;6.42;81.37;101875.91;5071665;28;20523;-55
2023/02/14 00:17:18;;;;;;;25.08;14.02;;;;;;;6.40;81.83;101884.47;5071724;28;20548;-46
2023/02/14 00:19:45;;;;;;;26.58;14.73;;;;;;;6.40;81.81;101889.97;5071797;28;20080;-47
2023/02/14 00:22:13;;;;;;;21.45;12.30;;;;;;;6.42;81.63;101890.50;5061496;28;20059;-46
2023/02/14 00:24:40;;;;;;;27.60;14.57;;;;;;;6.41;81.75;101880.59;5071242;28;20453;-47
2023/02/14 00:27:07;;;;;;;24.60;13.32;;;;;;;6.41;81.90;101866.84;5071525;28;20767;-47
2023/02/14 00:29:33;;;;;;;23.45;12.93;;;;;;;6.43;81.65;101864.63;5074635;28;20123;-46
2023/02/14 00:32:00;;;;;;;25.30;14.75;;;;;;;6.43;81.83;101872.06;5081480;28;20064;-46
2023/02/14 00:34:27;;;;;;;25.73;13.13;;;;;;;6.42;81.55;101865.72;5071153;28;20044;-47
2023/02/14 00:36:54;;;;;;;18.92;12.82;;;;;;;6.44;81.67;101869.00;5071654;28;20123;-46
2023/02/14 00:39:21;;;;;;;21.33;13.00;;;;;;;6.44;81.66;101869.00;5071001;28;20052;-47
2023/02/14 00:41:48;;;;;;;18.73;11.93;;;;;;;6.48;81.71;101869.25;5071045;28;20418;-46
2023/02/14 00:44:15;;;;;;;23.83;12.27;;;;;;;6.50;81.91;101862.34;5053132;28;20075;-48
2023/02/14 00:46:41;;;;;;;23.88;12.57;;;;;;;6.52;81.74;101865.63;5072120;28;20056;-49
2023/02/14 00:49:09;;;;;;;20.70;12.65;;;;;;;6.53;81.54;101860.94;5071317;28;20048;-48
2023/02/14 00:51:35;;;;;;;21.60;11.15;;;;;;;6.53;81.86;101849.94;5071197;28;20052;-46
2023/02/14 00:54:02;;;;;;;21.45;12.20;;;;;;;6.54;81.82;101844.13;5070863;28;20040;-47
2023/02/14 00:56:29;;;;;;;23.30;11.60;;;;;;;6.55;81.84;101853.22;5065706;28;20147;-47
2023/02/14 00:58:56;;;;;;;25.08;12.50;;;;;;;6.54;81.85;101863.41;5071063;28;20137;-49
2023/02/14 01:01:23;;;;;;;25.92;11.68;;;;;;;6.53;82.03;101867.28;5069590;28;20075;-46
2023/02/14 01:03:50;;;;;;;18.75;11.85;;;;;;;6.53;82.01;101872.78;5071231;28;20046;-49
2023/02/14 01:06:19;;;;;;;20.25;12.77;;;;;;;6.53;82.08;101866.44;5064130;28;20138;-45
2023/02/14 01:08:47;;;;;;;21.70;12.93;;;;;;;6.53;82.17;101859.03;5070895;28;20044;-49
2023/02/14 01:11:21;;;;;;;22.77;12.98;;;;;;;6.53;82.47;101866.44;5064622;28;20041;-47
2023/02/14 01:13:49;;;;;;;24.45;12.27;;;;;;;6.51;82.39;101863.19;5058219;28;20049;-46
2023/02/14 01:16:18;;;;;;;24.92;11.93;;;;;;;6.48;82.54;101853.59;5070688;28;20410;-47
2023/02/14 01:18:46;;;;;;;23.40;11.75;;;;;;;6.49;83.16;101848.88;5070639;28;20043;-46
2023/02/14 01:21:22;;;;;;;24.95;12.45;;;;;;;6.51;83.07;101858.47;5078406;28;20047;-48
2023/02/14 01:23:50;;;;;;;21.80;12.48;;;;;;;6.54;82.98;101835.09;5070966;28;20480;-50
2023/02/14 01:26:18;;;;;;;26.02;12.20;;;;;;;6.56;83.19;101838.38;5070233;28;20064;-46
2023/02/14 01:28:45;;;;;;;23.52;12.13;;;;;;;6.58;83.36;101847.13;5070400;28;20052;-48
2023/02/14 01:31:16;;;;;;;20.00;11.77;;;;;;;6.58;83.40;101842.47;5070071;28;20078;-46
2023/02/14 01:33:45;;;;;;;33.47;12.98;;;;;;;6.59;83.47;101835.81;5070183;28;20490;-46
2023/02/14 01:36:38;;;;;;;21.23;11.95;;;;;;;6.62;83.89;101832.50;5070206;28;20094;-46
2023/02/14 01:39:10;;;;;;;24.80;12.27;;;;;;;6.64;84.05;101830.28;5067415;28;20106;-45
2023/02/14 01:41:38;;;;;;;27.13;13.93;;;;;;;6.66;84.13;101819.81;5070296;28;20556;-46
2023/02/14 01:44:26;;;;;;;24.80;12.73;;;;;;;6.70;84.32;101815.34;5070302;28;20041;-52
2023/02/14 01:46:55;;;;;;;23.45;13.65;;;;;;;6.75;84.44;101822.75;5069829;28;20053;-46
2023/02/14 01:49:24;;;;;;;23.98;13.23;;;;;;;6.78;84.46;101821.34;5056443;28;20048;-52
2023/02/14 01:52:13;;;;;;;29.30;14.43;;;;;;;6.81;84.47;101821.53;5070110;28;20048;-49
2023/02/14 01:54:47;;;;;;;22.35;12.27;;;;;;;6.83;84.58;101821.28;5074255;28;20463;-51
2023/02/14 01:57:18;;;;;;;28.77;14.32;;;;;;;6.86;84.59;101817.94;5072002;28;20044;-47
2023/02/14 01:59:50;;;;;;;30.10;14.38;;;;;;;6.86;84.87;101809.69;5069857;28;20147;-46
2023/02/14 02:02:22;;;;;;;33.97;14.05;;;;;;;6.88;85.03;101804.69;5069467;28;20075;-46
2023/02/14 02:04:54;;;;;;;27.88;15.25;;;;;;;6.88;85.05;101801.94;5063542;28;20422;-46
2023/02/14 02:07:24;;;;;;;26.40;15.23;;;;;;;6.89;85.06;101804.38;5069556;28;20055;-46
2023/02/14 02:09:59;;;;;;;32.38;15.48;;;;;;;6.91;85.29;101802.16;5069367;28;20087;-54
2023/02/14 02:12:26;;;;;;;32.85;14.95;;;;;;;6.91;85.23;101815.91;5070101;28;20059;-47
2023/02/14 02:14:58;;;;;;;26.92;15.23;;;;;;;6.90;85.62;101814.28;5069447;28;20047;-48
2023/02/14 02:17:51;;;;;;;29.17;16.58;;;;;;;6.88;85.84;101804.69;5069522;28;20055;-46
2023/02/14 02:20:56;;;;;;;27.35;15.93;;;;;;;6.84;86.06;101796.19;5057446;28;20097;-48
2023/02/14 02:23:39;;;;;;;28.63;14.90;;;;;;;6.84;86.17;101803.63;5064514;28;20045;-46
2023/02/14 02:26:30;;;;;;;30.52;15.75;;;;;;;6.81;86.26;101795.94;5064678;28;20111;-46
2023/02/14 02:29:27;;;;;;;30.23;14.75;;;;;;;6.79;86.52;101798.19;5069967;28;20062;-46
2023/02/14 02:32:05;;;;;;;31.70;15.63;;;;;;;6.78;86.65;101794.59;5059282;28;20056;-47
2023/02/14 02:35:15;;;;;;;32.78;15.75;;;;;;;6.78;86.56;101799.31;5068970;28;20060;-46
2023/02/14 02:37:45;;;;;;;31.33;14.13;;;;;;;6.78;86.89;101794.59;5027940;28;20064;-46
2023/02/14 02:40:23;;;;;;;37.75;16.55;;;;;;;6.78;86.98;101780.84;5069004;28;20077;-46
2023/02/14 02:43:32;;;;;;;29.77;16.35;;;;;;;6.79;87.34;101788.00;5068614;28;20048;-52
2023/02/14 02:46:51;;;;;;;36.13;16.92;;;;;;;6.82;87.61;101786.59;5050025;28;20060;-45
2023/02/14 02:53:03;;;;;;;28.60;15.85;;;;;;;6.86;87.73;101776.66;5068943;28;20044;-46
2023/02/14 02:59:19;;;;;;;30.50;15.55;;;;;;;6.89;87.92;101776.03;5049560;28;20498;-49
2023/02/14 03:02:17;;;;;;;34.42;15.50;;;;;;;6.88;87.99;101768.91;5066939;22;20145;-47
2023/02/14 03:04:52;;;;;;;27.63;14.88;;;;;;;6.85;88.14;101770.31;5064824;28;20056;-55
2023/02/14 03:07:35;;;;;;;33.78;16.40;;;;;;;6.86;88.25;101776.66;5056087;28;20119;-50
2023/02/14 03:10:07;;;;;;;27.88;15.80;;;;;;;6.85;88.38;101778.56;5058056;28;20041;-47
2023/02/14 03:12:36;;;;;;;36.35;16.90;;;;;;;6.84;88.47;101785.19;5061982;28;20116;-47
2023/02/14 03:15:21;;;;;;;29.13;15.57;;;;;;;6.84;88.85;101767.84;5062571;28;20044;-52
2023/02/14 03:18:12;;;;;;;36.05;15.52;;;;;;;6.86;88.97;101782.94;5067863;28;20582;-48
2023/02/14 03:20:54;;;;;;;27.70;16.05;;;;;;;6.86;88.83;101771.94;5063953;28;20094;-49
2023/02/14 03:23:28;;;;;;;29.48;14.20;;;;;;;6.86;88.80;101765.63;5067376;28;20442;-47
2023/02/14 03:25:54;;;;;;;31.27;15.00;;;;;;;6.88;89.26;101755.16;5057571;28;20040;-52
2023/02/14 03:28:33;;;;;;;29.45;16.08;;;;;;;6.89;89.07;101759.50;5063360;28;20521;-46
2023/02/14 03:31:05;;;;;;;29.13;14.15;;;;;;;6.91;89.16;101757.31;5065138;28;21222;-47
2023/02/14 03:33:47;;;;;;;26.93;14.20;;;;;;;6.93;89.16;101755.91;5067991;28;20098;-47
2023/02/14 03:36:17;;;;;;;29.35;17.65;;;;;;;6.92;89.23;101742.41;5066850;28;20037;-48
2023/02/14 03:39:05;;;;;;;31.15;17.23;;;;;;;6.93;89.28;101735.81;5065853;28;20041;-47
2023/02/14 03:41:39;;;;;;;37.03;19.48;;;;;;;6.93;89.35;101736.63;5073625;28;20064;-46
2023/02/14 03:44:11;;;;;;;35.33;19.30;;;;;;;6.94;89.78;101726.41;5064649;28;20044;-47
2023/02/14 03:46:50;;;;;;;41.65;18.38;;;;;;;6.94;89.86;101723.66;5064672;28;20045;-47
2023/02/14 03:49:22;;;;;;;37.67;21.10;;;;;;;6.95;90.17;101726.13;5066510;28;20060;-47
2023/02/14 03:51:53;;;;;;;47.33;20.60;;;;;;;6.95;90.67;101715.13;5066168;28;20587;-47
2023/02/14 03:54:21;;;;;;;40.17;21.50;;;;;;;6.96;90.50;101721.44;5063633;28;20037;-47
2023/02/14 03:57:03;;;;;;;39.65;20.27;;;;;;;6.95;90.65;101725.31;5066249;28;20428;-47
2023/02/14 03:59:30;;;;;;;44.60;22.25;;;;;;;6.94;91.06;101718.97;5056670;28;20045;-47
2023/02/14 04:02:09;;;;;;;52.75;21.05;;;;;;;6.95;90.94;101715.13;5079208;28;20056;-47
2023/02/14 04:04:41;;;;;;;52.08;23.48;;;;;;;6.96;91.55;101727.78;5088612;28;20042;-47
2023/02/14 04:07:14;;;;;;;39.80;20.67;;;;;;;6.97;91.84;101723.06;5088161;28;20481;-47
2023/02/14 04:09:41;;;;;;;56.80;21.13;;;;;;;6.97;91.91;101729.41;5088218;28;20048;-47
2023/02/14 04:12:08;;;;;;;47.25;24.10;;;;;;;6.99;92.14;101729.13;5097267;28;20044;-46
2023/02/14 04:14:36;;;;;;;49.75;23.33;;;;;;;7.04;92.47;101735.34;5087202;28;20047;-47
2023/02/14 04:19:48;;;;;;;41.50;21.92;;;;;;;7.10;92.64;101731.41;5085198;28;20487;-47
2023/02/14 04:22:15;;;;;;;56.13;24.00;;;;;;;7.14;92.74;101734.38;5066272;28;20113;-48
2023/02/14 04:24:42;;;;;;;46.20;22.83;;;;;;;7.17;92.67;101733.78;5084782;28;20486;-47
2023/02/14 04:27:09;;;;;;;49.53;24.15;;;;;;;7.19;92.86;101728.81;5084029;28;20036;-50
2023/02/14 04:29:47;;;;;;;46.50;19.92;;;;;;;7.21;92.83;101723.81;5082971;28;20397;-47
2023/02/14 04:32:21;;;;;;;45.20;22.42;;;;;;;7.23;93.00;101727.06;5081556;28;20071;-47
2023/02/14 04:34:49;;;;;;;54.97;24.88;;;;;;;7.22;92.88;101722.69;5078798;28;20040;-47
2023/02/14 04:37:18;;;;;;;45.47;20.70;;;;;;;7.22;93.33;101719.94;5089717;28;20032;-50
2023/02/14 04:39:45;;;;;;;44.35;21.30;;;;;;;7.24;93.45;101728.72;5088155;28;20054;-52
2023/02/14 04:42:12;;;;;;;43.90;20.83;;;;;;;7.27;93.40;101728.13;5088710;28;20048;-53
2023/02/14 04:44:39;;;;;;;40.63;19.95;;;;;;;7.30;93.48;101727.53;5086466;28;20068;-50
2023/02/14 04:47:07;;;;;;;47.40;20.60;;;;;;;7.32;93.87;101726.13;5084460;28;20036;-46
2023/02/14 04:49:34;;;;;;;39.10;20.10;;;;;;;7.34;93.76;101723.06;5090104;28;20584;-47
2023/02/14 04:52:02;;;;;;;37.03;18.77;;;;;;;7.38;93.77;101737.88;5089278;28;20048;-47
2023/02/14 04:54:29;;;;;;;38.97;19.45;;;;;;;7.40;93.71;101716.34;5088872;28;20132;-46
2023/02/14 04:56:56;;;;;;;48.30;20.38;;;;;;;7.43;93.88;101724.00;5088051;28;20046;-47
2023/02/14 04:59:23;;;;;;;49.22;21.55;;;;;;;7.44;93.86;101711.84;5082184;28;20135;-47
2023/02/14 05:01:51;;;;;;;37.58;19.15;;;;;;;7.44;94.00;101706.34;5085587;28;20044;-46
2023/02/14 05:04:18;;;;;;;56.17;22.83;;;;;;;7.45;94.18;101719.03;5089024;28;20381;-47
2023/02/14 05:06:45;;;;;;;43.25;19.60;;;;;;;7.43;94.22;101721.25;5083663;28;20139;-47
2023/02/14 05:09:12;;;;;;;49.83;23.88;;;;;;;7.42;94.40;101708.59;5090509;28;20047;-47
2023/02/14 05:11:39;;;;;;;42.85;20.67;;;;;;;7.41;94.38;101712.50;5089797;28;20039;-46
2023/02/14 05:14:06;;;;;;;40.17;20.48;;;;;;;7.40;94.42;101716.34;5090758;28;20070;-47
2023/02/14 05:16:33;;;;;;;44.67;20.85;;;;;;;7.36;94.47;101698.78;5087875;28;20054;-47
2023/02/14 05:18:59;;;;;;;46.17;19.20;;;;;;;7.34;94.64;101712.84;5086595;28;20458;-47
2023/02/14 05:21:27;;;;;;;44.80;19.38;;;;;;;7.32;95.04;101711.53;5087927;28;20040;-46
2023/02/14 05:23:54;;;;;;;37.65;18.83;;;;;;;7.33;94.84;101715.91;5089906;28;20104;-47
2023/02/14 05:26:21;;;;;;;43.75;19.67;;;;;;;7.32;94.90;101703.25;5083259;28;20075;-46
2023/02/14 05:28:47;;;;;;;50.05;20.70;;;;;;;7.31;95.09;101707.13;5085930;28;20045;-47
2023/02/14 05:31:14;;;;;;;48.72;20.98;;;;;;;7.31;95.24;101707.13;5082859;28;20048;-49
2023/02/14 05:33:41;;;;;;;50.35;19.05;;;;;;;7.32;95.27;101714.28;5093373;28;20115;-51
2023/02/14 05:36:08;;;;;;;41.72;18.10;;;;;;;7.33;95.37;101696.63;5075027;28;20040;-46
2023/02/14 05:38:35;;;;;;;33.33;16.58;;;;;;;7.34;95.33;101699.09;5084282;28;20036;-47
2023/02/14 05:41:02;;;;;;;39.40;16.95;;;;;;;7.37;95.39;101703.16;5083281;28;20155;-46
2023/02/14 05:43:29;;;;;;;33.47;16.70;;;;;;;7.42;95.43;101699.50;5088853;28;20042;-47
2023/02/14 05:46:11;;;;;;;41.20;18.00;;;;;;;7.43;95.55;101693.72;5078440;28;20052;-47
2023/02/14 05:48:40;;;;;;;46.40;18.63;;;;;;;7.44;95.45;101683.50;5083304;28;20079;-47
2023/02/14 05:51:09;;;;;;;44.53;18.70;;;;;;;7.44;95.82;101700.84;5083286;28;20056;-47
2023/02/14 05:53:37;;;;;;;41.75;17.17;;;;;;;7.44;95.49;101695.31;5100050;28;20075;-47
2023/02/14 05:56:04;;;;;;;49.97;19.85;;;;;;;7.44;95.71;101689.81;5084064;28;20533;-48
2023/02/14 05:58:31;;;;;;;37.05;17.38;;;;;;;7.46;95.72;101697.81;5084346;28;20131;-47
2023/02/14 06:00:59;;;;;;;41.65;20.60;;;;;;;7.48;95.76;101695.56;5085625;28;20052;-47
2023/02/14 06:03:29;;;;;;;35.00;17.58;;;;;;;7.50;96.08;101693.31;5066046;28;20048;-46
2023/02/14 06:05:55;;;;;;;39.13;17.90;;;;;;;7.52;96.13;101689.13;5076412;28;20044;-46
2023/02/14 06:08:22;;;;;;;33.25;16.15;;;;;;;7.52;96.47;101680.88;5085246;28;20044;-48
2023/02/14 06:10:49;;;;;;;37.97;16.48;;;;;;;7.56;96.41;101681.91;5084189;28;20066;-47
2023/02/14 06:13:16;;;;;;;30.80;16.83;;;;;;;7.58;96.16;101676.91;5089164;28;20039;-47
2023/02/14 06:15:43;;;;;;;36.45;17.73;;;;;;;7.61;96.10;101678.25;5087323;28;20044;-47
2023/02/14 06:18:10;;;;;;;33.15;16.33;;;;;;;7.63;96.08;101681.50;5086858;28;20068;-46
2023/02/14 06:20:36;;;;;;;40.25;18.55;;;;;;;7.64;96.25;101678.47;5089922;28;20036;-47
2023/02/14 06:23:03;;;;;;;31.95;17.17;;;;;;;7.67;96.26;101686.13;5089232;28;20068;-51
2023/02/14 06:25:30;;;;;;;48.78;22.52;;;;;;;7.69;96.29;101680.31;5090192;28;20398;-47
2023/02/14 06:27:59;;;;;;;49.50;20.65;;;;;;;7.69;96.55;101686.63;5072209;28;20508;-48
2023/02/14 06:30:26;;;;;;;39.15;18.83;;;;;;;7.68;96.26;101684.16;5089162;28;20207;-47
2023/02/14 06:32:53;;;;;;;45.17;21.58;;;;;;;7.67;96.51;101694.41;5089448;28;20230;-47
2023/02/14 06:35:21;;;;;;;43.53;21.13;;;;;;;7.66;96.41;101681.72;5073915;28;20040;-46
2023/02/14 06:37:48;;;;;;;49.88;21.48;;;;;;;7.66;96.69;101678.97;5089379;28;20044;-47
2023/02/14 06:40:14;;;;;;;37.63;17.98;;;;;;;7.66;96.77;101681.72;5088901;28;20120;-47
2023/02/14 06:42:41;;;;;;;40.63;20.08;;;;;;;7.67;96.92;101674.28;5089391;28;20123;-48
2023/02/14 06:45:08;;;;;;;36.55;18.63;;;;;;;7.67;97.02;101672.34;5090060;28;20054;-47
2023/02/14 06:47:35;;;;;;;44.08;17.90;;;;;;;7.68;96.93;101667.63;5089322;28;20554;-47
2023/02/14 06:50:03;;;;;;;41.35;19.08;;;;;;;7.70;96.95;101677.25;5089290;28;20105;-47
2023/02/14 06:52:32;;;;;;;48.25;20.10;;;;;;;7.69;97.28;101683.88;5089107;28;20477;-47
2023/02/14 06:54:59;;;;;;;42.20;20.83;;;;;;;7.71;97.30;101689.91;5088987;28;20455;-50
2023/02/14 06:57:27;;;;;;;44.33;21.23;;;;;;;7.74;97.32;101694.81;5089132;28;20241;-53
2023/02/14 06:59:54;;;;;;;40.17;20.70;;;;;;;7.75;97.54;101685.44;5067827;28;20572;-47
2023/02/14 07:02:21;;;;;;;39.50;19.48;;;;;;;7.80;97.50;101682.59;5089378;28;20083;-47
2023/02/14 07:04:50;;;;;;;43.60;19.80;;;;;;;7.83;97.50;101675.66;5088771;28;20036;-48
2023/02/14 07:07:17;;;;;;;36.05;17.98;;;;;;;7.84;97.57;101675.31;5088831;28;20585;-50
2023/02/14 07:09:45;;;;;;;32.97;18.92;;;;;;;7.85;97.64;101676.97;5088735;28;20043;-47
2023/02/14 07:12:12;;;;;;;36.78;17.23;;;;;;;7.88;97.72;101679.13;5096454;28;20044;-53
2023/02/14 07:14:39;;;;;;;36.25;17.65;;;;;;;7.90;97.75;101682.38;5088883;28;20082;-47
2023/02/14 07:17:06;;;;;;;29.63;16.63;;;;;;;7.92;97.88;101690.34;5088698;28;20467;-50
2023/02/14 07:19:32;;;;;;;38.58;16.58;;;;;;;7.94;97.91;101682.59;5093708;28;20110;-46
2023/02/14 07:21:59;;;;;;;35.78;14.40;;;;;;;7.97;98.13;101685.53;5088440;28;20044;-47
2023/02/14 07:24:26;;;;;;;36.63;15.63;;;;;;;7.99;98.11;101688.81;5075491;28;20049;-47
2023/02/14 07:26:53;;;;;;;32.30;14.82;;;;;;;8.02;98.15;101689.34;5088788;28;20556;-47
2023/02/14 07:29:20;;;;;;;34.00;16.05;;;;;;;8.03;98.24;101690.97;5088779;28;20473;-47
2023/02/14 07:31:46;;;;;;;35.08;16.15;;;;;;;8.05;98.24;101694.25;5088654;28;20136;-47
2023/02/14 07:34:13;;;;;;;40.22;16.63;;;;;;;8.06;98.42;101696.69;5091069;28;20619;-47
2023/02/14 07:36:40;;;;;;;34.10;15.32;;;;;;;8.08;98.47;101699.97;5081616;28;20172;-51
2023/02/14 07:39:07;;;;;;;23.77;12.82;;;;;;;8.10;98.53;101697.72;5086912;28;20875;-46
2023/02/14 07:41:34;;;;;;;22.88;11.82;;;;;;;8.13;98.47;101697.09;5066965;28;20130;-47
2023/02/14 07:44:00;;;;;;;23.13;12.43;;;;;;;8.16;98.62;101703.94;5085809;28;20044;-47
2023/02/14 07:46:27;;;;;;;20.05;11.20;;;;;;;8.19;98.70;101704.16;5081574;28;20519;-48
2023/02/14 07:48:54;;;;;;;23.77;11.98;;;;;;;8.23;98.81;101707.13;5063609;28;20052;-47
2023/02/14 07:51:21;;;;;;;21.80;11.82;;;;;;;8.26;98.79;101699.03;5084418;28;20043;-48
2023/02/14 07:53:48;;;;;;;28.60;11.82;;;;;;;8.28;98.90;101702.38;5080371;28;20075;-47
2023/02/14 07:56:14;;;;;;;22.30;11.57;;;;;;;8.33;99.24;101690.41;5085627;28;20063;-50
2023/02/14 07:58:41;;;;;;;20.40;11.38;;;;;;;8.36;99.17;101703.59;5088193;28;20047;-47
2023/02/14 08:01:08;;;;;;;17.98;9.88;;;;;;;8.39;99.24;101705.75;5087733;28;20564;-47
2023/02/14 08:03:35;;;;;;;27.33;9.75;;;;;;;8.40;99.19;101707.34;5088458;28;20123;-47
2023/02/14 08:06:02;;;;;;;26.70;11.13;;;;;;;8.43;99.27;101717.78;5088153;28;20056;-50
2023/02/14 08:08:30;;;;;;;25.02;10.15;;;;;;;8.46;99.39;101708.91;5088466;28;20126;-47
2023/02/14 08:10:57;;;;;;;18.95;9.95;;;;;;;8.48;99.43;101709.41;5097687;28;20517;-47
2023/02/14 08:13:25;;;;;;;16.50;9.93;;;;;;;8.49;99.49;101717.38;5090322;28;20071;-47
2023/02/14 08:16:04;;;;;;;22.77;10.38;;;;;;;8.51;99.46;101715.13;5092150;28;20070;-50
2023/02/14 08:18:37;;;;;;;21.85;10.25;;;;;;;8.55;99.75;101723.63;5073924;28;20040;-47
2023/02/14 08:21:06;;;;;;;21.50;9.60;;;;;;;8.55;99.79;101716.13;5090908;28;20124;-48
2023/02/14 08:23:33;;;;;;;22.15;9.77;;;;;;;8.56;99.79;101716.97;5083451;28;20135;-48
2023/02/14 08:26:01;;;;;;;24.05;11.90;;;;;;;8.58;99.95;101720.22;5092042;28;20386;-47
2023/02/14 08:28:28;;;;;;;22.90;10.50;;;;;;;8.60;100.00;101706.94;5087872;28;20047;-52
2023/02/14 08:30:55;;;;;;;22.25;11.10;;;;;;;8.63;100.00;101711.03;5090935;28;20051;-47
2023/02/14 08:33:22;;;;;;;23.55;14.20;;;;;;;8.65;100.00;101698.56;5094559;28;20516;-47
2023/02/14 08:35:50;;;;;;;25.70;14.18;;;;;;;8.67;100.00;101704.59;5096896;28;20078;-47
2023/02/14 08:38:17;;;;;;;21.83;12.60;;;;;;;8.69;100.00;101698.72;5091400;28;20063;-47
2023/02/14 08:40:44;;;;;;;30.23;14.25;;;;;;;8.70;100.00;101694.84;5091421;28;20116;-47
2023/02/14 08:43:11;;;;;;;30.92;13.63;;;;;;;8.74;100.00;101698.63;5100503;28;20048;-47
2023/02/14 08:45:39;;;;;;;23.92;12.93;;;;;;;8.79;100.00;101687.50;5095771;28;20465;-50
2023/02/14 08:48:08;;;;;;;31.67;14.30;;;;;;;8.83;100.00;101700.34;5091709;28;20047;-45
2023/02/14 08:50:36;;;;;;;33.88;15.20;;;;;;;8.87;100.00;101700.56;5090971;28;20135;-45
2023/02/14 08:53:06;;;;;;;30.75;14.27;;;;;;;8.90;100.00;101695.22;5091358;28;20079;-46
2023/02/14 08:55:33;;;;;;;31.38;13.75;;;;;;;8.94;100.00;101703.72;5091377;28;20050;-47
2023/02/14 08:58:01;;;;;;;32.53;12.88;;;;;;;8.97;100.00;101706.69;5091511;28;20036;-47
2023/02/14 09:00:29;;;;;;;30.63;13.23;;;;;;;9.02;100.00;101702.97;5091665;28;20520;-46
2023/02/14 09:02:56;;;;;;;33.00;13.68;;;;;;;9.04;100.00;101698.78;5091097;28;20064;-51
2023/02/14 09:05:25;;;;;;;36.97;13.73;;;;;;;9.07;100.00;101703.69;5091186;28;20413;-47
2023/02/14 09:07:54;;;;;;;25.48;12.13;;;;;;;9.08;100.00;101710.81;5073441;28;20044;-49
2023/02/14 09:10:23;;;;;;;30.25;12.07;;;;;;;9.09;100.00;101704.16;5093277;28;20048;-47
2023/02/14 09:12:51;;;;;;;25.83;11.13;;;;;;;9.10;100.00;101694.78;5098569;28;20051;-49
2023/02/14 09:15:17;;;;;;;20.60;11.05;;;;;;;9.14;100.00;101706.81;5090871;28;20036;-48
2023/02/14 09:17:45;;;;;;;24.92;11.02;;;;;;;9.17;100.00;101710.91;5104531;28;20047;-52
2023/02/14 09:20:14;;;;;;;16.92;8.82;;;;;;;9.17;100.00;101700.66;5076298;28;20032;-48
2023/02/14 09:22:41;;;;;;;15.63;9.15;;;;;;;9.18;100.00;101702.31;5071995;28;20052;-46
2023/02/14 09:25:08;;;;;;;17.17;8.82;;;;;;;9.21;100.00;101702.81;5090684;28;20047;-46
2023/02/14 09:27:35;;;;;;;13.80;7.55;;;;;;;9.23;100.00;101697.78;5090686;28;20143;-47
2023/02/14 09:30:04;;;;;;;24.55;7.68;;;;;;;9.25;100.00;101701.03;5090883;28;20048;-46
2023/02/14 09:32:31;;;;;;;15.38;7.38;;;;;;;9.27;100.00;101702.34;5091040;28;20075;-50
2023/02/14 09:34:59;;;;;;;14.30;7.28;;;;;;;9.31;100.00;101702.56;5073688;28;20079;-46
2023/02/14 09:37:26;;;;;;;10.82;5.53;;;;;;;9.35;100.00;101707.13;5090751;28;20044;-54
2023/02/14 09:39:53;;;;;;;15.05;6.78;;;;;;;9.38;100.00;101694.63;5090883;28;20101;-46
2023/02/14 09:42:39;;;;;;;13.38;6.60;;;;;;;9.41;100.00;101694.84;5090650;28;20067;-46
2023/02/14 09:45:15;;;;;;;20.77;5.57;;;;;;;9.45;100.00;101703.31;5090753;28;20097;-46
2023/02/14 09:47:58;;;;;;;15.90;6.40;;;;;;;9.47;100.00;101703.81;5090501;28;20461;-48
2023/02/14 09:50:40;;;;;;;13.88;6.28;;;;;;;9.48;100.00;101711.78;5090815;28;20048;-48
2023/02/14 09:53:19;;;;;;;20.37;5.53;;;;;;;9.51;100.00;101702.03;5090847;28;20125;-48
2023/02/14 09:55:55;;;;;;;18.63;6.03;;;;;;;9.53;100.00;101691.50;5090178;28;20110;-47
2023/02/14 09:58:28;;;;;;;15.95;7.07;;;;;;;9.56;100.00;101696.38;5090465;28;20055;-47
2023/02/14 10:01:14;;;;;;;11.73;6.47;;;;;;;9.59;100.00;101698.53;5089348;28;20109;-47
2023/02/14 10:04:13;;;;;;;13.50;5.88;;;;;;;9.64;100.00;101701.97;5090328;28;20036;-46
2023/02/14 10:07:17;;;;;;;17.25;6.82;;;;;;;9.70;100.00;101697.97;5089686;28;20052;-46
2023/02/14 10:10:08;;;;;;;13.07;5.65;;;;;;;9.80;100.00;101705.16;5084213;28;20046;-49
2023/02/14 10:12:48;;;;;;;20.02;5.93;;;;;;;9.87;100.00;101701.97;5080803;28;20143;-46
2023/02/14 10:15:22;;;;;;;17.70;6.07;;;;;;;9.93;100.00;101701.50;5089825;28;20444;-48
2023/02/14 10:17:51;;;;;;;14.98;6.18;;;;;;;9.96;100.00;101711.09;5089494;28;20510;-48
2023/02/14 10:20:44;;;;;;;13.98;5.95;;;;;;;10.02;100.00;101713.44;5090227;28;20398;-46
2023/02/14 10:23:33;;;;;;;16.05;5.32;;;;;;;10.08;100.00;101695.56;5090023;28;20075;-47
2023/02/14 10:26:13;;;;;;;24.08;6.25;;;;;;;10.15;100.00;101693.19;5090209;28;20370;-46
2023/02/14 10:28:46;;;;;;;14.25;6.65;;;;;;;10.25;100.00;101700.38;5089713;28;20040;-47
2023/02/14 10:31:25;;;;;;;14.95;5.63;;;;;;;10.32;100.00;101704.31;5089320;28;20074;-47
2023/02/14 10:34:19;;;;;;;25.05;6.65;;;;;;;10.39;100.00;101710.19;5096662;28;20044;-46
2023/02/14 10:36:50;;;;;;;21.65;6.55;;;;;;;10.45;100.00;101712.81;5048076;28;20058;-47
2023/02/14 10:39:23;;;;;;;14.75;6.18;;;;;;;10.49;100.00;101717.38;5089125;28;20144;-46
2023/02/14 10:41:54;;;;;;;15.88;5.55;;;;;;;10.54;100.00;101717.22;5089697;28;20122;-46
2023/02/14 10:44:50;;;;;;;15.95;6.50;;;;;;;10.63;100.00;101720.03;5089382;28;20043;-47
2023/02/14 10:47:22;;;;;;;28.05;7.18;;;;;;;10.67;100.00;101715.50;5088861;28;20047;-46
2023/02/14 10:50:17;;;;;;;24.52;8.27;;;;;;;10.77;100.00;101720.72;5089111;28;20075;-47
2023/02/14 10:52:44;;;;;;;17.10;4.80;;;;;;;10.88;100.00;101719.28;5076335;28;20094;-51
2023/02/14 10:55:16;;;;;;;19.20;5.85;;;;;;;11.05;100.00;101718.47;5070606;28;20563;-47
2023/02/14 10:58:00;;;;;;;17.83;6.82;;;;;;;11.25;100.00;101709.53;5089351;28;20048;-46
2023/02/14 11:00:34;;;;;;;21.58;5.97;;;;;;;11.37;99.88;101695.81;5090829;28;20082;-48
2023/02/14 11:03:06;;;;;;;29.95;7.22;;;;;;;11.33;99.24;101701.19;5088715;28;20044;-47
2023/02/14 11:05:44;;;;;;;20.00;7.32;;;;;;;11.25;99.21;101704.78;5089180;28;20127;-47
2023/02/14 11:08:35;;;;;;;16.73;5.82;;;;;;;11.13;99.25;101696.31;5088980;28;20055;-47
2023/02/14 11:11:22;;;;;;;16.52;5.90;;;;;;;11.03;99.43;101688.34;5096756;28;20073;-47
2023/02/14 11:13:49;;;;;;;17.42;5.10;;;;;;;11.00;99.35;101700.06;5076580;28;20438;-47
2023/02/14 11:16:34;;;;;;;17.60;5.70;;;;;;;10.98;99.39;101689.31;5089358;28;20093;-48
2023/02/14 11:19:14;;;;;;;22.08;5.88;;;;;;;10.96;99.00;101693.56;5088603;28;20123;-46
2023/02/14 11:21:44;;;;;;;13.68;4.78;;;;;;;10.92;99.03;101692.56;5088610;28;20120;-47
2023/02/14 11:24:33;;;;;;;23.40;7.10;;;;;;;10.86;98.89;101691.06;5087170;28;20036;-48
2023/02/14 11:27:09;;;;;;;22.27;6.20;;;;;;;10.83;98.84;101697.25;5078117;28;20032;-46
2023/02/14 11:29:51;;;;;;;16.05;5.63;;;;;;;10.85;98.93;101704.13;5088406;28;20543;-47
2023/02/14 11:32:33;;;;;;;12.07;5.22;;;;;;;10.88;98.76;101694.34;5088887;28;20043;-47
2023/02/14 11:35:05;;;;;;;19.38;4.68;;;;;;;10.88;98.62;101692.38;5092824;28;20052;-46
2023/02/14 11:37:42;;;;;;;10.50;3.72;;;;;;;10.90;98.40;101689.31;5070710;28;20048;-47
2023/02/14 11:40:24;;;;;;;10.95;3.33;;;;;;;10.88;98.11;101699.91;5088333;28;20443;-46
2023/02/14 11:42:51;;;;;;;11.40;4.25;;;;;;;10.84;97.85;101687.81;5075362;28;20036;-46
2023/02/14 11:45:39;;;;;;;12.40;5.05;;;;;;;10.76;97.83;101691.38;5090132;28;20036;-47
2023/02/14 11:48:19;;;;;;;12.60;3.80;;;;;;;10.72;97.64;101693.97;5092681;28;20063;-46
2023/02/14 11:51:08;;;;;;;15.95;4.30;;;;;;;10.71;97.74;101694.31;5093327;28;20101;-50
2023/02/14 11:53:44;;;;;;;18.27;3.92;;;;;;;10.68;97.87;101690.25;5092687;28;20119;-48